Latest Weather Observations for Mount Read

IDT60801

Issued at 10:31 pm EDT Tuesday 9 February 2016 (issued every 30 minutes, with the page automatically refreshed every 10 minutes)

About weather observations | Map of weather stations | Latest weather observations for TAS | Other Formats
Station Details ID: 097085 Name: MOUNT READ Lat: -41.84 Lon: 145.54 Height: 1119.5 m
Data from the previous 72 hours. | See also: Recent months at Mount Read
Date/Time
EDT
Temp
°C
App
Temp
°C
Dew
Point
Rel
Hum
%
Delta-T
°C
Wind Press
QNH
hPa
Press
MSL
hPa
Rain
since 9 am
mm
Dir
 
Spd
km/h
Gust
km/h
Spd
kts
Gust
kts
09/10:30pm 9.9 8.2 9.9 100 0.0 WNW 9 17 5 9 1018.8 1016.9 0.0
09/10:00pm 9.8 9.0 9.8 100 0.0 NNW 4 7 2 4 1019.0 1017.2 0.0
09/09:30pm 10.0 8.9 10.0 100 0.0 N 6 9 3 5 1019.0 1017.2 0.0
09/09:00pm 9.4 6.4 9.3 99 0.1 SSW 15 20 8 11 1019.2 1017.4 0.0
09/08:30pm 9.7 7.6 9.6 99 0.1 SW 11 13 6 7 1019.0 1017.2 0.0
09/08:00pm 11.5 10.0 10.6 94 0.5 WNW 9 11 5 6 1019.2 1017.4 0.0
09/07:30pm 11.2 10.3 10.6 96 0.3 SW 6 9 3 5 1019.3 1017.5 0.0
09/07:00pm 12.8 12.0 10.9 88 1.1 SSW 6 11 3 6 1019.5 1017.6 0.0
09/06:30pm 14.3 13.5 10.9 80 1.9 SSE 6 9 3 5 1019.7 1017.8 0.0
09/06:00pm 16.8 15.7 10.6 67 3.5 SSW 7 15 4 8 1019.8 1018.0 0.0
09/05:30pm 18.1 15.5 9.5 57 4.8 W 13 17 7 9 1020.0 1018.2 0.0
09/05:00pm 18.2 16.4 9.5 57 4.8 NW 9 15 5 8 1020.3 1018.5 0.0
09/04:30pm 18.4 15.4 7.5 49 5.9 WNW 13 20 7 11 1020.7 1018.9 0.0
09/04:00pm 19.2 17.1 8.2 49 6.0 NNW 9 20 5 11 1020.8 1019.0 0.0
09/03:30pm 18.4 15.3 5.6 43 6.6 NNW 11 19 6 10 1021.1 1019.3 0.0
09/03:00pm 18.8 16.8 8.5 51 5.6 NNW 9 20 5 11 1021.4 1019.6 0.0
09/02:30pm 19.0 16.2 7.1 46 6.4 NW 11 20 6 11 1021.8 1020.0 0.0
09/02:00pm 17.8 15.2 6.3 47 6.0 NNW 9 20 5 11 1022.0 1020.2 0.0
09/01:30pm 18.2 15.3 8.2 52 5.4 NNW 13 22 7 12 1022.2 1020.5 0.0
09/01:00pm 17.0 12.8 5.6 47 5.8 NNW 17 24 9 13 1022.5 1020.7 0.0
09/12:30pm 16.4 13.2 8.4 59 4.3 NW 15 26 8 14 1022.7 1020.9 0.0
09/12:00pm 15.6 12.2 9.1 65 3.5 N 17 22 9 12 1022.8 1021.0 0.0
09/11:30am 15.1 11.7 9.0 67 3.3 N 17 20 9 11 1022.8 1021.0 0.0
09/11:00am 13.6 10.9 10.4 81 1.8 N 15 22 8 12 1022.9 1021.1 0.0
09/10:30am 13.6 10.6 10.6 82 1.7 N 17 20 9 11 1023.0 1021.3 0.0
09/10:00am 13.1 9.9 11.2 88 1.1 N 19 28 10 15 1022.9 1021.1 0.0
09/09:30am 12.3 8.8 10.2 87 1.1 N 19 26 10 14 1023.0 1021.3 0.0
09/09:00am 12.1 8.7 9.3 83 1.5 N 17 22 9 12 1023.0 1021.3 0.2
09/08:30am 12.0 8.8 9.9 87 1.1 N 17 19 9 10 1023.0 1021.3 0.2
09/08:00am 11.8 7.4 5.0 63 3.3 N 17 20 9 11 1022.9 1021.1 0.2
09/07:30am 11.1 6.9 1.9 53 4.2 N 13 17 7 9 1022.6 1020.8 0.2
09/07:00am 10.9 7.3 -3.9 35 5.9 N 6 7 3 4 1022.5 1020.7 0.2
09/06:30am 8.1 5.2 1.7 64 2.8 ENE 6 7 3 4 1022.4 1020.6 0.2
09/06:00am 6.6 3.3 6.3 98 0.1 SSE 13 15 7 8 1022.0 1020.2 0.2
09/05:30am 6.9 3.2 6.5 97 0.2 S 15 15 8 8 1021.8 1020.0 0.2
09/05:00am 6.7 2.7 6.6 99 0.0 S 17 19 9 10 1021.9 1020.1 0.2
09/04:30am 6.7 2.3 6.6 99 0.0 SSW 19 20 10 11 1022.0 1020.2 0.2
09/04:00am 6.7 2.1 6.6 99 0.0 SSW 20 22 11 12 1022.1 1020.3 0.0
09/03:30am 6.9 2.4 6.8 99 0.0 SSW 20 22 11 12 1022.1 1020.3 0.0
09/03:00am 7.0 3.1 6.9 99 0.0 SSW 17 19 9 10 1022.2 1020.5 0.0
09/02:30am 6.9 2.4 6.8 99 0.0 S 20 24 11 13 1022.4 1020.6 0.0
09/02:00am 6.9 2.6 6.8 99 0.0 SE 19 24 10 13 1022.6 1020.8 0.0
09/01:30am 6.8 2.8 6.8 100 0.0 SE 17 20 9 11 1022.9 1021.1 0.0
09/01:00am 6.9 2.4 6.9 100 0.0 SSE 20 24 11 13 1023.1 1021.4 0.0
09/12:30am 6.9 2.0 6.9 100 0.0 SSE 22 26 12 14 1023.2 1021.5 0.0
09/12:00am 6.9 0.5 6.9 100 0.0 SSE 30 33 16 18 1023.1 1021.4 0.0
 
Date/Time
EDT
Temp
°C
App
Temp
°C
Dew
Point
Rel
Hum
%
Delta-T
°C
Wind Press
QNH
hPa
Press
MSL
hPa
Rain
since 9 am
mm
Dir
 
Spd
km/h
Gust
km/h
Spd
kts
Gust
kts
08/11:30pm 7.4 1.5 7.4 100 0.0 S 28 35 15 19 1023.2 1021.5 0.0
08/11:00pm 7.7 0.9 7.7 100 0.0 S 33 37 18 20 1023.4 1021.6 0.0
08/10:30pm 7.8 1.2 7.8 100 0.0 S 32 39 17 21 1023.4 1021.6 0.0
08/10:00pm 7.8 1.6 7.8 100 0.0 S 30 37 16 20 1023.4 1021.6 0.0
08/09:30pm 7.8 2.0 7.8 100 0.0 S 28 35 15 19 1023.1 1021.4 0.0
08/09:00pm 8.1 2.3 8.1 100 0.0 S 28 35 15 19 1022.8 1021.0 0.0
08/08:30pm 8.3 2.6 8.2 99 0.1 SSW 28 37 15 20 1022.8 1021.0 0.0
08/08:00pm 8.5 3.2 8.4 99 0.1 SSW 26 35 14 19 1022.7 1020.9 0.0
08/07:30pm 9.2 4.1 9.1 99 0.1 SSW 26 32 14 17 1022.6 1020.8 0.0
08/07:00pm 9.8 4.3 9.0 95 0.4 SSW 28 35 15 19 1022.5 1020.7 0.0
08/06:30pm 10.6 4.3 8.9 89 0.9 SSW 32 39 17 21 1022.4 1020.6 0.0
08/06:00pm 10.6 4.6 8.7 88 1.0 SSW 30 37 16 20 1022.4 1020.6 0.0
08/05:30pm 11.6 6.4 8.8 83 1.5 SSW 26 33 14 18 1022.2 1020.5 0.0
08/05:00pm 12.4 6.2 9.2 81 1.7 SSW 32 37 17 20 1022.1 1020.3 0.0
08/04:30pm 13.8 9.6 9.6 76 2.3 SSW 22 32 12 17 1022.2 1020.5 0.0
08/04:00pm 13.8 10.4 9.0 73 2.6 SSW 17 24 9 13 1022.4 1020.6 0.0
08/03:30pm 13.4 9.6 9.8 79 2.0 SSW 20 30 11 16 1022.5 1020.7 0.0
08/03:00pm 14.0 10.3 10.0 77 2.2 SW 20 28 11 15 1022.5 1020.7 0.0
08/02:30pm 13.2 9.5 9.5 78 2.0 SSW 19 30 10 16 1022.5 1020.7 0.0
08/02:00pm 13.8 10.2 9.8 77 2.2 SSW 19 30 10 16 1022.6 1020.8 0.0
08/01:30pm 13.5 9.7 9.7 78 2.1 SSW 20 30 11 16 1022.6 1020.8 0.0
08/01:00pm 13.1 9.6 8.8 75 2.3 SSW 17 28 9 15 1022.7 1020.9 0.0
08/12:30pm 13.5 10.0 10.3 81 1.8 SW 19 28 10 15 1022.6 1020.8 0.0
08/12:00pm 11.9 7.6 9.5 85 1.3 SSW 22 35 12 19 1022.6 1020.8 0.0
08/11:30am 11.5 6.7 8.7 83 1.5 SW 24 33 13 18 1022.5 1020.7 0.0
08/11:00am 10.5 6.7 9.9 96 0.3 SSW 20 28 11 15 1022.6 1020.8 0.0
08/10:30am 9.5 5.6 9.5 100 0.0 SSW 20 32 11 17 1022.5 1020.7 0.0
08/10:00am 9.1 5.7 9.1 100 0.0 SSW 17 26 9 14 1022.2 1020.5 0.0
08/09:30am 8.9 4.5 8.9 100 0.0 SW 22 28 12 15 1022.1 1020.3 0.0
08/09:00am 8.9 4.1 8.9 100 0.0 SW 24 33 13 18 1022.1 1020.3 0.2
08/08:30am 9.0 4.2 9.0 100 0.0 SW 24 32 13 17 1021.7 1019.9 0.2
08/08:00am 9.6 5.4 9.6 100 0.0 SW 22 32 12 17 1021.5 1019.7 0.2
08/07:30am 9.4 5.1 9.4 100 0.0 SW 22 30 12 16 1021.2 1019.4 0.2
08/07:00am 9.4 5.1 9.4 100 0.0 SW 22 28 12 15 1020.9 1019.1 0.2
08/06:30am 9.6 6.3 9.6 100 0.0 SW 17 22 9 12 1020.6 1018.8 0.2
08/06:00am 9.8 6.6 9.8 100 0.0 SSW 17 28 9 15 1020.3 1018.5 0.2
08/05:30am 9.9 6.3 9.9 100 0.0 SSW 19 24 10 13 1020.1 1018.3 0.0
08/05:00am 10.1 6.6 10.1 100 0.0 SW 19 26 10 14 1020.2 1018.4 0.0
08/04:30am 10.0 6.4 10.0 100 0.0 SW 19 20 10 11 1020.1 1018.3 0.0
08/04:00am 10.2 6.5 10.2 100 0.0 SW 20 24 11 13 1020.2 1018.4 0.0
08/03:30am 10.4 7.3 10.4 100 0.0 SSW 17 22 9 12 1020.5 1018.6 0.0
08/03:00am 10.3 7.2 10.3 100 0.0 SW 17 19 9 10 1020.6 1018.8 0.0
08/02:30am 10.7 7.7 10.7 100 0.0 SSW 17 22 9 12 1020.7 1018.9 0.0
08/02:00am 10.9 8.4 10.9 100 0.0 SSW 15 19 8 10 1020.9 1019.1 0.0
08/01:30am 10.8 9.0 10.8 100 0.0 SSW 11 15 6 8 1020.9 1019.1 0.0
08/01:00am 10.8 9.0 10.8 100 0.0 SW 11 17 6 9 1021.0 1019.2 0.0
08/12:30am 10.8 8.5 10.6 99 0.1 SW 13 15 7 8 1021.1 1019.3 0.0
08/12:00am 10.8 7.8 10.8 100 0.0 WSW 17 19 9 10 1020.9 1019.1 0.0
 
Date/Time
EDT
Temp
°C
App
Temp
°C
Dew
Point
Rel
Hum
%
Delta-T
°C
Wind Press
QNH
hPa
Press
MSL
hPa
Rain
since 9 am
mm
Dir
 
Spd
km/h
Gust
km/h
Spd
kts
Gust
kts
07/11:30pm 11.2 7.8 11.2 100 0.0 WSW 20 24 11 13 1021.0 1019.2 0.0
07/11:00pm 11.1 8.6 10.9 99 0.1 WSW 15 17 8 9 1020.9 1019.1 0.0
07/10:30pm 11.1 8.2 11.1 100 0.0 W 17 19 9 10 1021.1 1019.3 0.0
07/10:00pm 11.3 10.0 11.3 100 0.0 W 9 13 5 7 1021.1 1019.3 0.0
07/09:30pm 12.2 10.8 12.2 100 0.0 WSW 11 15 6 8 1021.1 1019.3 0.0
07/09:00pm 12.5 10.4 12.5 100 0.0 SW 15 20 8 11 1020.6 1018.8 0.0
07/08:30pm 12.7 10.7 12.7 100 0.0 SW 15 19 8 10 1020.6 1018.8 0.0
07/08:00pm 12.8 11.1 12.6 99 0.1 SSW 13 17 7 9 1020.3 1018.5 0.0
07/07:30pm 13.1 11.2 12.9 99 0.1 SW 15 22 8 12 1020.2 1018.4 0.0
07/07:00pm 14.1 11.8 13.1 94 0.6 SSW 17 20 9 11 1020.0 1018.2 0.0
07/06:30pm 15.1 12.7 12.8 86 1.3 SSW 17 24 9 13 1019.7 1017.8 0.0
07/06:00pm 15.8 11.7 12.7 82 1.8 SSW 26 35 14 19 1019.7 1017.8 0.0
07/05:30pm 16.0 12.3 12.6 80 2.0 SSW 24 33 13 18 1019.7 1017.8 0.0
07/05:00pm 18.7 17.2 13.1 70 3.3 SW 13 43 7 23 1019.9 1018.1 0.0
07/04:30pm 19.3 17.8 13.0 67 3.8 N 13 22 7 12 1019.7 1017.8 0.0
07/04:00pm 19.1 17.8 11.4 61 4.4 NNW 9 19 5 10 1020.0 1018.2 0.0
07/03:30pm 19.9 19.1 12.9 64 4.2 W 9 19 5 10 1020.1 1018.3 0.0
07/03:00pm 19.3 17.9 10.8 58 4.9 NW 9 20 5 11 1020.1 1018.3 0.0
07/02:30pm 18.1 16.3 11.0 63 4.1 NNW 11 19 6 10 1020.2 1018.4 0.0
07/02:00pm 17.9 15.7 10.8 63 4.0 WNW 13 22 7 12 1020.3 1018.5 0.0
07/01:30pm 18.0 16.1 10.4 61 4.3 NNW 11 26 6 14 1020.5 1018.6 0.0
07/01:00pm 18.0 15.8 10.9 63 4.0 NW 13 22 7 12 1020.5 1018.6 0.0
07/12:30pm 18.4 15.8 11.9 66 3.8 NNW 17 28 9 15 1020.2 1018.4 0.0
07/12:00pm 17.2 15.4 12.1 72 3.0 N 13 22 7 12 1020.2 1018.4 0.0
07/11:30am 15.8 13.7 11.0 73 2.7 N 13 20 7 11 1020.2 1018.4 0.0
07/11:00am 15.8 13.5 11.6 76 2.4 NNE 15 22 8 12 1020.3 1018.5 0.0
07/10:30am 14.3 12.3 11.5 83 1.6 N 13 20 7 11 1020.6 1018.8 0.0
07/10:00am 13.4 11.4 11.6 89 1.0 NNE 13 20 7 11 1020.2 1018.4 0.0
07/09:30am 12.0 9.5 10.9 93 0.6 NNE 15 22 8 12 1020.1 1018.3 0.0
07/09:00am 11.8 8.8 10.5 92 0.7 NNE 17 24 9 13 1020.0 1018.2 0.0
07/08:30am 11.6 9.5 11.3 98 0.2 NNE 13 19 7 10 1020.0 1018.2 0.0
07/08:00am 11.0 8.4 10.8 99 0.1 NNE 15 20 8 11 1019.8 1018.0 0.0
07/07:30am 10.8 7.8 10.6 99 0.1 NNE 17 19 9 10 1019.6 1017.7 0.0
07/07:00am 10.5 7.8 10.3 99 0.1 NNE 15 17 8 9 1019.7 1017.8 0.0
07/06:30am 10.6 8.0 10.6 100 0.0 NNE 15 20 8 11 1019.7 1017.8 0.0
07/06:00am 10.7 8.1 10.7 100 0.0 NNE 15 22 8 12 1019.6 1017.7 0.0
07/05:30am 10.7 7.1 10.7 100 0.0 NNE 20 26 11 14 1019.1 1017.3 0.0
07/05:00am 10.8 6.1 10.8 100 0.0 N 26 32 14 17 1018.9 1017.0 0.0
07/04:30am 10.7 5.2 10.5 99 0.1 N 30 33 16 18 1018.7 1016.8 0.0
07/04:00am 10.6 4.5 10.4 99 0.1 N 33 37 18 20 1018.8 1016.9 0.0
07/03:30am 10.5 4.6 10.5 100 0.0 NNE 32 37 17 20 1018.7 1016.8 0.0
07/03:00am 10.2 4.6 10.2 100 0.0 NNE 30 39 16 21 1019.0 1017.2 0.0
07/02:30am 10.0 4.7 10.0 100 0.0 N 28 35 15 19 1019.5 1017.6 0.0
07/02:00am 10.3 6.6 10.3 100 0.0 N 20 28 11 15 1019.8 1018.0 0.0
07/01:30am 10.5 8.6 10.5 100 0.0 N 11 15 6 8 1020.2 1018.4 0.0
07/01:00am 10.5 8.6 10.5 100 0.0 N 11 15 6 8 1020.2 1018.4 0.0
07/12:30am 10.5 8.2 10.5 100 0.0 N 13 15 7 8 1020.2 1018.4 0.0
07/12:00am 10.6 8.7 10.6 100 0.0 N 11 13 6 7 1020.3 1018.5 0.0
 
Date/Time
EDT
Temp
°C
App
Temp
°C
Dew
Point
Rel
Hum
%
Delta-T
°C
Wind Press
QNH
hPa
Press
MSL
hPa
Rain
since 9 am
mm
Dir
 
Spd
km/h
Gust
km/h
Spd
kts
Gust
kts
06/11:30pm 10.9 8.7 10.9 100 0.0 NNW 13 15 7 8 1020.5 1018.6 0.0
06/11:00pm 11.1 8.9 10.9 99 0.1 NNW 13 17 7 9 1020.6 1018.8 0.0

Other Formats:

Comma delimited format used in spreadsheet applications
http://www.bom.gov.au/fwo/IDT60801/IDT60801.95952.axf

JavaScript Object Notation format (JSON) in row-major order
http://www.bom.gov.au/fwo/IDT60801/IDT60801.95952.json